PAMR/MRI METAR and TAF weather

Enter ICAO airport designator
Station Type Date Time Source
PAMR METAR 2021/09/20 05:53 UTC NOAA

PAMR 200553Z 10003KT 10SM CLR 08/01 A2962 RMK AO2 SLP033 T00830006 10144 20083 52001


Station Type Date Time Source
PAMR Decoded METAR 2021/09/20 05:53 UTC NOAA

ANCHORAGE MERRILL FIELD, AK, United States (PAMR) 61-13N 149-51W
Sep 20, 2021 - 01:53 AM EDT / 2021.09.20 0553 UTC
Wind: from the E (100 degrees) at 3 MPH (3 KT):0
Visibility: 10 mile(s):0
Sky conditions: clear
Temperature: 46.9 F (8.3 C)
Dew Point: 33.1 F (0.6 C)
Relative Humidity: 58%
Pressure (altimeter): 29.62 in. Hg (1003 hPa)
Pressure tendency: 0.00 inches (0.1 hPa) higher than three hours ago
ob: PAMR 200553Z 10003KT 10SM CLR 08/01 A2962 RMK AO2 SLP033 T00830006 10144 20083 52001
cycle: 6

Station Type Date Time Source
PAMR TAF UTC NOAA

Error!

Example: see airport list